createdAt,value
2017-11-24T00:02:26.135Z,2.47
2017-11-24T00:04:54.468Z,2.57
2017-11-24T00:07:21.926Z,3.13
2017-11-24T00:09:49.487Z,2.87
2017-11-24T00:12:16.945Z,2.50
2017-11-24T00:14:44.474Z,3.13
2017-11-24T00:17:11.954Z,4.10
2017-11-24T00:19:40.261Z,2.97
2017-11-24T00:22:07.829Z,3.30
2017-11-24T00:24:35.307Z,3.23
2017-11-24T00:27:02.876Z,2.57
2017-11-24T00:29:30.534Z,3.00
2017-11-24T00:31:58.261Z,3.83
2017-11-24T00:34:26.526Z,3.10
2017-11-24T00:36:54.161Z,2.20
2017-11-24T00:39:21.698Z,2.10
2017-11-24T00:41:49.290Z,2.53
2017-11-24T00:44:16.766Z,2.27
2017-11-24T00:46:44.500Z,2.20
2017-11-24T00:49:11.967Z,2.50
2017-11-24T00:51:39.467Z,2.30
2017-11-24T00:56:41.707Z,2.60
2017-11-24T00:59:09.194Z,2.80
2017-11-24T01:01:38.230Z,2.07
2017-11-24T01:04:05.708Z,2.47
2017-11-24T01:06:33.174Z,2.63
2017-11-24T01:09:00.703Z,2.37
2017-11-24T01:11:28.179Z,2.10
2017-11-24T01:13:55.657Z,1.83
2017-11-24T01:16:24.766Z,2.37
2017-11-24T01:18:52.252Z,1.80
2017-11-24T01:21:19.705Z,2.13
2017-11-24T01:23:47.269Z,2.17
2017-11-24T01:26:14.746Z,2.57
2017-11-24T01:28:42.427Z,2.67
2017-11-24T01:31:09.981Z,2.10
2017-11-24T01:33:37.465Z,2.17
2017-11-24T01:36:05.187Z,2.33
2017-11-24T01:38:32.647Z,2.83
2017-11-24T01:41:00.132Z,3.10
2017-11-24T01:43:28.457Z,2.60
2017-11-24T01:45:55.948Z,2.10
2017-11-24T01:48:23.497Z,2.40
2017-11-24T01:50:50.979Z,2.10
2017-11-24T01:53:18.461Z,2.27
2017-11-24T01:55:46.710Z,2.93
2017-11-24T01:58:14.236Z,4.10
2017-11-24T02:00:41.717Z,2.90
2017-11-24T02:03:09.746Z,3.17
2017-11-24T02:05:37.971Z,2.40
2017-11-24T02:08:05.459Z,2.10
2017-11-24T02:10:33.699Z,2.03
2017-11-24T02:13:01.179Z,2.43
2017-11-24T02:15:28.748Z,2.90
2017-11-24T02:17:57.003Z,2.93
2017-11-24T02:20:24.466Z,2.73
2017-11-24T02:22:51.941Z,2.27
2017-11-24T02:25:20.284Z,2.90
2017-11-24T02:27:47.766Z,3.00
2017-11-24T02:30:15.243Z,2.50
2017-11-24T02:32:43.493Z,3.30
2017-11-24T02:35:10.960Z,3.00
2017-11-24T02:37:39.281Z,2.30
2017-11-24T02:40:06.759Z,2.70
2017-11-24T02:42:34.217Z,3.10
2017-11-24T02:45:01.789Z,2.87
2017-11-24T02:47:30.776Z,2.90
2017-11-24T02:49:58.228Z,2.57
2017-11-24T02:52:25.818Z,2.80
2017-11-24T02:54:53.294Z,2.40
2017-11-24T02:57:21.519Z,3.00
2017-11-24T02:59:48.998Z,2.90
2017-11-24T03:02:16.473Z,3.70
2017-11-24T03:04:44.730Z,3.33
2017-11-24T03:07:12.310Z,3.50
2017-11-24T03:09:41.194Z,3.10
2017-11-24T03:12:09.560Z,3.67
2017-11-24T03:14:37.215Z,3.00
2017-11-24T03:17:04.725Z,2.77
2017-11-24T03:19:32.194Z,3.40
2017-11-24T03:21:59.702Z,2.97
2017-11-24T03:24:27.974Z,2.50
2017-11-24T03:26:55.522Z,2.70
2017-11-24T03:29:23.192Z,3.23
2017-11-24T03:31:51.485Z,3.20
2017-11-24T03:34:19.793Z,2.57
2017-11-24T03:36:47.314Z,3.30
2017-11-24T03:39:15.571Z,2.90
2017-11-24T03:41:43.101Z,3.17
2017-11-24T03:44:10.587Z,3.77
2017-11-24T03:46:38.920Z,3.43
2017-11-24T03:49:06.377Z,2.90
2017-11-24T03:51:33.854Z,3.13
2017-11-24T03:54:01.349Z,4.63
2017-11-24T03:56:29.597Z,3.37
2017-11-24T03:58:57.186Z,3.20
2017-11-24T04:01:25.574Z,2.80
2017-11-24T04:03:53.818Z,2.70
2017-11-24T04:06:21.293Z,2.73
2017-11-24T04:08:49.548Z,3.30
2017-11-24T04:11:17.058Z,2.63
2017-11-24T04:13:44.533Z,2.57
2017-11-24T04:16:12.014Z,2.70
2017-11-24T04:18:39.486Z,2.70
2017-11-24T04:21:06.984Z,2.87
2017-11-24T04:23:34.457Z,3.30
2017-11-24T04:26:02.037Z,2.93
2017-11-24T04:28:29.507Z,3.30
2017-11-24T04:30:57.061Z,3.40
2017-11-24T04:33:24.539Z,3.33
2017-11-24T04:35:52.767Z,3.57
2017-11-24T04:38:20.289Z,3.90
2017-11-24T04:40:48.566Z,3.77
2017-11-24T04:43:16.798Z,3.90
2017-11-24T04:45:44.276Z,4.23
2017-11-24T04:48:11.750Z,3.73
2017-11-24T04:50:40.013Z,3.90
2017-11-24T04:53:08.238Z,4.30
2017-11-24T04:55:35.738Z,4.50
2017-11-24T04:58:03.277Z,3.90
2017-11-24T05:00:30.756Z,4.00
2017-11-24T05:02:58.225Z,3.07
2017-11-24T05:05:26.462Z,3.67
2017-11-24T05:07:53.979Z,3.80
2017-11-24T05:10:21.694Z,3.47
2017-11-24T05:12:49.403Z,3.40
2017-11-24T05:15:16.858Z,3.77
2017-11-24T05:17:44.338Z,3.70
2017-11-24T05:20:11.804Z,3.93
2017-11-24T05:22:39.285Z,3.97
2017-11-24T05:25:06.757Z,3.00
2017-11-24T05:27:34.336Z,3.10
2017-11-24T05:30:02.554Z,4.00
2017-11-24T05:32:30.042Z,3.27
2017-11-24T05:34:57.515Z,5.13
2017-11-24T05:37:25.765Z,4.63
2017-11-24T05:39:53.225Z,5.07
2017-11-24T05:42:20.750Z,4.60
2017-11-24T05:44:48.324Z,3.70
2017-11-24T05:47:15.794Z,2.57
2017-11-24T05:49:43.256Z,2.70
2017-11-24T05:52:10.742Z,2.63
2017-11-24T05:54:38.971Z,2.90
2017-11-24T05:57:06.443Z,2.10
2017-11-24T05:59:33.939Z,2.60
2017-11-24T06:02:01.398Z,2.17
2017-11-24T06:04:28.911Z,3.43
2017-11-24T06:06:56.380Z,2.43
2017-11-24T06:09:23.865Z,2.10
2017-11-24T06:11:52.089Z,2.23
2017-11-24T06:14:19.568Z,2.80
2017-11-24T06:16:47.027Z,3.30
2017-11-24T06:19:14.573Z,2.80
2017-11-24T06:21:42.030Z,3.33
2017-11-24T06:24:09.661Z,2.97
2017-11-24T06:26:37.129Z,3.50
2017-11-24T06:29:04.584Z,3.20
2017-11-24T06:31:32.094Z,3.77
2017-11-24T06:34:00.333Z,3.93
2017-11-24T06:36:27.823Z,4.00
2017-11-24T06:38:56.062Z,4.30
2017-11-24T06:41:23.575Z,4.03
2017-11-24T06:43:51.078Z,4.43
2017-11-24T06:46:18.757Z,4.17
2017-11-24T06:48:46.209Z,4.20
2017-11-24T06:51:13.676Z,3.90
2017-11-24T06:53:41.188Z,4.80
2017-11-24T06:56:08.633Z,4.87
2017-11-24T06:58:36.202Z,3.90
2017-11-24T07:01:03.669Z,4.20
2017-11-24T07:03:31.271Z,4.37
2017-11-24T07:05:59.490Z,4.27
2017-11-24T07:08:27.067Z,4.83
2017-11-24T07:10:55.034Z,4.60
2017-11-24T07:13:22.504Z,4.30
2017-11-24T07:15:49.985Z,4.47
2017-11-24T07:18:17.491Z,4.10
2017-11-24T07:20:44.958Z,4.10
2017-11-24T07:23:12.430Z,4.93
2017-11-24T07:25:40.328Z,4.70
2017-11-24T07:28:07.780Z,4.33
2017-11-24T07:30:35.409Z,4.73
2017-11-24T07:33:02.867Z,4.97
2017-11-24T07:35:30.324Z,5.17
2017-11-24T07:37:57.804Z,5.20
2017-11-24T07:40:26.053Z,5.17
2017-11-24T07:42:53.527Z,5.30
2017-11-24T07:45:21.038Z,5.50
2017-11-24T07:47:48.524Z,6.40
2017-11-24T07:50:16.119Z,7.83
2017-11-24T07:52:44.365Z,11.40
2017-11-24T07:55:11.876Z,13.77
2017-11-24T07:57:40.103Z,12.87
2017-11-24T08:00:07.583Z,11.47
2017-11-24T08:02:36.103Z,10.17
2017-11-24T08:05:03.570Z,7.60
2017-11-24T08:07:31.051Z,7.77
2017-11-24T08:09:58.633Z,6.63
2017-11-24T08:12:26.932Z,8.60
2017-11-24T08:14:54.412Z,9.50
2017-11-24T08:17:22.063Z,10.57
2017-11-24T08:19:49.533Z,11.70
2017-11-24T08:22:17.008Z,9.30
2017-11-24T08:24:44.501Z,7.77
2017-11-24T08:27:11.958Z,6.53
2017-11-24T08:29:39.466Z,5.27
2017-11-24T08:32:07.126Z,4.37
2017-11-24T08:34:34.688Z,5.13
2017-11-24T08:37:02.158Z,4.70
2017-11-24T08:39:29.625Z,4.73
2017-11-24T08:41:57.224Z,5.27
2017-11-24T08:44:25.601Z,5.40
2017-11-24T08:46:59.491Z,4.70
2017-11-24T08:49:32.598Z,4.40
2017-11-24T08:52:00.855Z,4.20
2017-11-24T08:54:29.262Z,3.70
2017-11-24T08:56:56.728Z,3.27
2017-11-24T08:59:24.248Z,3.70
2017-11-24T09:01:51.725Z,2.70
2017-11-24T09:04:20.086Z,2.67
2017-11-24T09:06:47.563Z,3.30
2017-11-24T09:09:15.063Z,3.00
2017-11-24T09:11:42.931Z,4.07
2017-11-24T09:14:10.444Z,2.90
2017-11-24T09:16:38.726Z,3.57
2017-11-24T09:19:06.209Z,5.83
2017-11-24T09:21:33.702Z,6.73
2017-11-24T09:24:01.230Z,4.90
2017-11-24T09:26:29.090Z,6.13
2017-11-24T09:28:57.599Z,6.50
2017-11-24T09:31:25.130Z,6.60
2017-11-24T09:33:52.662Z,5.10
2017-11-24T09:36:20.248Z,8.20
2017-11-24T09:38:47.719Z,8.37
2017-11-24T09:41:15.223Z,7.97
2017-11-24T09:43:43.614Z,8.33
2017-11-24T09:46:11.854Z,8.60
2017-11-24T09:48:39.331Z,7.70
2017-11-24T09:51:07.596Z,6.43
2017-11-24T09:53:35.858Z,7.07
2017-11-24T09:56:03.338Z,6.67
2017-11-24T09:58:36.746Z,7.70
2017-11-24T10:01:05.071Z,8.63
2017-11-24T10:03:32.558Z,10.47
2017-11-24T10:06:00.140Z,8.30
2017-11-24T10:08:28.616Z,9.20
2017-11-24T10:10:56.251Z,10.17
2017-11-24T10:13:23.772Z,10.17
2017-11-24T10:15:51.394Z,10.53
2017-11-24T10:18:19.664Z,8.20
2017-11-24T10:20:53.415Z,4.60
2017-11-24T10:23:20.940Z,4.47
2017-11-24T10:25:49.188Z,5.03
2017-11-24T10:28:16.707Z,4.80
2017-11-24T10:30:44.201Z,4.80
2017-11-24T10:33:11.661Z,5.50
2017-11-24T10:35:39.172Z,6.07
2017-11-24T10:38:06.725Z,5.07
2017-11-24T10:40:34.195Z,5.00
2017-11-24T10:43:02.011Z,5.33
2017-11-24T10:45:29.527Z,4.80
2017-11-24T10:47:56.993Z,5.63
2017-11-24T10:50:24.550Z,4.00
2017-11-24T10:52:52.023Z,4.13
2017-11-24T10:55:19.493Z,3.10
2017-11-24T10:57:47.787Z,3.77
2017-11-24T11:00:16.035Z,3.53
2017-11-24T11:02:43.538Z,4.00
2017-11-24T11:05:11.001Z,3.70
2017-11-24T11:07:38.492Z,3.93
2017-11-24T11:10:06.074Z,4.20
2017-11-24T11:12:33.543Z,3.23
2017-11-24T11:15:03.441Z,3.43
2017-11-24T11:17:32.306Z,4.17
2017-11-24T11:20:00.041Z,4.10
2017-11-24T11:22:28.387Z,3.97
2017-11-24T11:24:56.619Z,3.57
2017-11-24T11:27:24.161Z,7.27
2017-11-24T11:29:51.645Z,9.20
2017-11-24T11:32:19.752Z,10.33
2017-11-24T11:34:48.065Z,9.77
2017-11-24T11:37:18.451Z,9.23
2017-11-24T11:39:49.011Z,5.03
2017-11-24T11:42:16.473Z,5.30
2017-11-24T11:44:44.184Z,4.00
2017-11-24T11:47:11.664Z,4.53
2017-11-24T11:49:39.906Z,6.73
2017-11-24T11:52:07.387Z,6.30
2017-11-24T11:54:35.639Z,6.70
2017-11-24T11:57:03.363Z,9.27
2017-11-24T11:59:30.837Z,7.80
2017-11-24T12:01:58.325Z,6.70
2017-11-24T12:04:25.834Z,4.70
2017-11-24T12:06:53.294Z,4.90
2017-11-24T12:09:20.760Z,4.90
2017-11-24T12:11:48.462Z,4.03
2017-11-24T12:14:15.973Z,6.83
2017-11-24T12:16:43.452Z,8.50
2017-11-24T12:19:10.938Z,5.90
2017-11-24T12:21:38.417Z,5.57
2017-11-24T12:24:05.972Z,5.63
2017-11-24T12:26:33.443Z,8.60
2017-11-24T12:29:00.982Z,11.00
2017-11-24T12:31:29.218Z,9.23
2017-11-24T12:33:56.766Z,14.47
2017-11-24T12:36:24.336Z,13.33
2017-11-24T12:38:51.817Z,13.80
2017-11-24T12:41:19.412Z,13.40
2017-11-24T12:43:46.930Z,15.07
2017-11-24T12:46:15.321Z,14.33
2017-11-24T12:48:43.579Z,17.37
2017-11-24T12:51:11.249Z,16.40
2017-11-24T12:53:38.738Z,14.40
2017-11-24T12:56:06.224Z,15.60
2017-11-24T12:58:33.744Z,16.23
2017-11-24T13:01:01.981Z,16.67
2017-11-24T13:03:29.609Z,16.63
2017-11-24T13:05:57.130Z,16.40
2017-11-24T13:08:25.510Z,12.60
2017-11-24T13:10:53.886Z,8.83
2017-11-24T13:13:22.104Z,8.07
2017-11-24T13:15:49.586Z,7.37
2017-11-24T13:18:17.109Z,8.13
2017-11-24T13:20:44.587Z,8.23
2017-11-24T13:23:12.667Z,8.47
2017-11-24T13:25:40.142Z,7.70
2017-11-24T13:28:07.816Z,9.30
2017-11-24T13:30:36.086Z,9.00
2017-11-24T13:33:03.554Z,8.97
2017-11-24T13:35:31.995Z,9.27
2017-11-24T13:37:59.657Z,9.57
2017-11-24T13:40:28.062Z,9.97
2017-11-24T13:42:55.525Z,9.60
2017-11-24T13:45:23.759Z,8.83
2017-11-24T13:47:51.313Z,7.67
2017-11-24T13:50:18.787Z,8.50
2017-11-24T13:52:46.263Z,6.97
2017-11-24T13:55:13.757Z,7.13
2017-11-24T13:57:41.826Z,7.07
2017-11-24T14:00:09.298Z,6.87
2017-11-24T14:02:36.934Z,6.20
2017-11-24T14:05:04.442Z,6.77
2017-11-24T14:07:31.929Z,6.60
2017-11-24T14:09:59.479Z,7.40
2017-11-24T14:12:26.947Z,6.70
2017-11-24T14:14:55.369Z,7.60
2017-11-24T14:17:23.069Z,6.77
2017-11-24T14:19:50.627Z,7.67
2017-11-24T14:22:18.971Z,7.80
2017-11-24T14:24:46.455Z,8.27
2017-11-24T14:27:14.105Z,8.20
2017-11-24T14:29:41.799Z,9.13
2017-11-24T14:32:10.058Z,8.33
2017-11-24T14:34:37.752Z,8.93
2017-11-24T14:37:06.003Z,9.00
2017-11-24T14:39:33.755Z,9.23
2017-11-24T14:42:01.253Z,8.40
2017-11-24T14:44:29.718Z,9.07
2017-11-24T14:46:58.096Z,8.77
2017-11-24T14:49:25.628Z,10.13
2017-11-24T14:51:53.138Z,9.40
2017-11-24T14:54:20.672Z,9.20
2017-11-24T14:56:48.923Z,8.50
2017-11-24T14:59:16.423Z,10.00
2017-11-24T15:01:43.899Z,9.10
2017-11-24T15:04:11.422Z,10.47
2017-11-24T15:06:39.717Z,11.27
2017-11-24T15:09:07.957Z,10.50
2017-11-24T15:11:35.431Z,10.33
2017-11-24T15:14:03.667Z,11.40
2017-11-24T15:16:31.137Z,10.13
2017-11-24T15:18:58.636Z,10.67
2017-11-24T15:21:26.886Z,11.63
2017-11-24T15:23:55.137Z,11.83
2017-11-24T15:26:22.671Z,11.00
2017-11-24T15:28:50.161Z,11.10
2017-11-24T15:31:17.625Z,10.90
2017-11-24T15:33:45.090Z,10.87
2017-11-24T15:36:12.585Z,11.10
2017-11-24T15:38:40.083Z,11.80
2017-11-24T15:41:07.715Z,10.23
2017-11-24T15:43:35.330Z,11.67
2017-11-24T15:46:03.565Z,11.03
2017-11-24T15:48:31.088Z,10.27
2017-11-24T15:50:58.683Z,10.80
2017-11-24T15:53:26.235Z,11.07
2017-11-24T15:55:53.763Z,10.90
2017-11-24T15:58:21.506Z,12.30
2017-11-24T16:00:49.881Z,12.67
2017-11-24T16:03:18.933Z,13.40
2017-11-24T16:05:46.419Z,15.40
2017-11-24T16:08:13.931Z,12.57
2017-11-24T16:10:42.152Z,12.83
2017-11-24T16:13:09.646Z,13.80
2017-11-24T16:15:37.906Z,14.43
2017-11-24T16:18:06.368Z,12.67
2017-11-24T16:20:33.923Z,14.77
2017-11-24T16:23:01.719Z,16.73
2017-11-24T16:25:29.967Z,14.70
2017-11-24T16:27:57.483Z,14.80
2017-11-24T16:30:24.957Z,16.00
2017-11-24T16:32:53.180Z,16.10
2017-11-24T16:35:21.453Z,14.30
2017-11-24T16:37:49.766Z,14.17
2017-11-24T16:40:18.220Z,13.90
2017-11-24T16:42:46.467Z,15.90
2017-11-24T16:45:14.714Z,15.47
2017-11-24T16:47:42.326Z,14.23
2017-11-24T16:50:10.589Z,14.87
2017-11-24T16:52:38.848Z,14.43
2017-11-24T16:55:07.110Z,14.77
2017-11-24T16:57:34.774Z,15.43
2017-11-24T17:00:02.280Z,16.80
2017-11-24T17:02:30.688Z,16.47
2017-11-24T17:04:58.400Z,16.90
2017-11-24T17:07:26.694Z,16.77
2017-11-24T17:09:54.375Z,17.87
2017-11-24T17:12:22.001Z,16.60
2017-11-24T17:14:50.266Z,15.57
2017-11-24T17:17:17.798Z,15.00
2017-11-24T17:19:45.289Z,15.57
2017-11-24T17:22:13.577Z,15.90
2017-11-24T17:24:41.844Z,14.67
2017-11-24T17:27:10.142Z,14.80
2017-11-24T17:29:37.637Z,14.93
2017-11-24T17:32:05.115Z,14.77
2017-11-24T17:34:32.599Z,14.07
2017-11-24T17:37:00.902Z,15.87
2017-11-24T17:39:28.431Z,14.70
2017-11-24T17:41:56.671Z,14.50
2017-11-24T17:44:24.261Z,14.90
2017-11-24T17:46:52.629Z,14.87
2017-11-24T17:49:20.126Z,15.87
2017-11-24T17:51:47.616Z,15.90
2017-11-24T17:54:15.076Z,15.40
2017-11-24T17:56:42.576Z,14.63
2017-11-24T17:59:10.126Z,16.03
2017-11-24T18:01:38.015Z,15.30
2017-11-24T18:04:06.933Z,14.83
2017-11-24T18:06:34.406Z,16.37
2017-11-24T18:09:01.938Z,16.90
2017-11-24T18:11:29.538Z,16.63
2017-11-24T18:13:57.081Z,14.60
2017-11-24T18:16:24.930Z,16.37
2017-11-24T18:18:52.563Z,14.47
2017-11-24T18:21:20.642Z,16.53
2017-11-24T18:23:48.192Z,14.70
2017-11-24T18:26:15.675Z,16.43
2017-11-24T18:28:43.435Z,15.57
2017-11-24T18:31:10.973Z,16.50
2017-11-24T18:33:39.134Z,17.03
2017-11-24T18:36:08.260Z,16.67
2017-11-24T18:38:35.869Z,16.20
2017-11-24T18:41:03.397Z,17.03
2017-11-24T18:43:30.925Z,16.00
2017-11-24T18:45:58.442Z,15.70
2017-11-24T18:48:26.398Z,15.30
2017-11-24T18:50:54.963Z,15.10
2017-11-24T18:53:22.486Z,14.37
2017-11-24T18:55:50.067Z,17.40
2017-11-24T18:58:17.761Z,16.67
2017-11-24T19:00:45.258Z,17.40
2017-11-24T19:03:12.928Z,16.70
2017-11-24T19:05:40.436Z,16.80
2017-11-24T19:08:07.925Z,18.10
2017-11-24T19:10:35.493Z,17.53
2017-11-24T19:13:03.060Z,17.27
2017-11-24T19:15:30.690Z,16.77
2017-11-24T19:17:58.174Z,16.47
2017-11-24T19:20:25.858Z,16.30
2017-11-24T19:22:53.404Z,17.93
2017-11-24T19:25:20.893Z,17.23
2017-11-24T19:27:48.512Z,16.80
2017-11-24T19:30:16.009Z,15.67
2017-11-24T19:32:43.611Z,16.30
2017-11-24T19:35:11.887Z,17.17
2017-11-24T19:37:40.194Z,19.13
2017-11-24T19:40:07.710Z,17.83
2017-11-24T19:42:35.249Z,17.90
2017-11-24T19:45:02.885Z,17.07
2017-11-24T19:47:30.429Z,18.27
2017-11-24T19:49:57.921Z,17.90
2017-11-24T19:52:25.528Z,18.17
2017-11-24T19:54:53.120Z,18.30
2017-11-24T19:57:20.650Z,17.27
2017-11-24T19:59:49.009Z,16.47
2017-11-24T20:02:17.391Z,16.60
2017-11-24T20:04:45.780Z,18.77
2017-11-24T20:07:19.220Z,17.70
2017-11-24T20:09:46.892Z,17.70
2017-11-24T20:12:14.383Z,19.00
2017-11-24T20:14:41.898Z,16.57
2017-11-24T20:17:09.662Z,18.30
2017-11-24T20:19:37.180Z,17.90
2017-11-24T20:22:05.438Z,16.63
2017-11-24T20:24:33.827Z,17.00
2017-11-24T20:27:02.093Z,17.10
2017-11-24T20:29:30.474Z,16.63
2017-11-24T20:31:58.740Z,17.23
2017-11-24T20:34:26.203Z,16.60
2017-11-24T20:36:54.471Z,15.97
2017-11-24T20:39:22.924Z,17.30
2017-11-24T20:41:50.415Z,16.93
2017-11-24T20:44:17.874Z,16.60
2017-11-24T20:46:46.225Z,16.60
2017-11-24T20:49:13.729Z,16.57
2017-11-24T20:51:41.988Z,16.60
2017-11-24T20:54:10.222Z,17.33
2017-11-24T20:56:37.716Z,18.40
2017-11-24T20:59:05.972Z,16.37
2017-11-24T21:01:33.455Z,16.10
2017-11-24T21:04:01.818Z,17.10
2017-11-24T21:06:29.279Z,16.30
2017-11-24T21:08:57.552Z,16.97
2017-11-24T21:11:25.012Z,16.00
2017-11-24T21:13:53.282Z,15.97
2017-11-24T21:16:20.758Z,16.40
2017-11-24T21:18:49.012Z,16.37
2017-11-24T21:21:16.514Z,15.83
2017-11-24T21:23:44.133Z,16.60
2017-11-24T21:26:11.627Z,16.70
2017-11-24T21:28:39.115Z,16.07
2017-11-24T21:31:06.617Z,17.00
2017-11-24T21:33:34.855Z,15.93
2017-11-24T21:36:02.337Z,16.10
2017-11-24T21:38:29.802Z,16.53
2017-11-24T21:40:58.129Z,16.40
2017-11-24T21:43:25.743Z,16.33
2017-11-24T21:45:53.301Z,16.63
2017-11-24T21:48:20.851Z,16.70
2017-11-24T21:50:50.864Z,16.93
2017-11-24T21:53:19.191Z,16.80
2017-11-24T21:55:46.755Z,15.50
2017-11-24T21:58:14.235Z,14.67
2017-11-24T22:00:41.720Z,15.90
2017-11-24T22:03:09.202Z,16.90
2017-11-24T22:05:36.860Z,16.03
2017-11-24T22:08:05.120Z,17.23
2017-11-24T22:10:33.860Z,16.73
2017-11-24T22:13:01.352Z,15.33
2017-11-24T22:15:29.662Z,17.47
2017-11-24T22:17:57.152Z,15.27
2017-11-24T22:20:24.661Z,15.43
2017-11-24T22:22:52.921Z,15.83
2017-11-24T22:25:21.196Z,16.27
2017-11-24T22:27:48.660Z,15.07
2017-11-24T22:30:19.267Z,15.37
2017-11-24T22:32:46.834Z,15.57
2017-11-24T22:35:14.371Z,15.20
2017-11-24T22:37:41.847Z,16.20
2017-11-24T22:40:09.352Z,16.40
2017-11-24T22:42:36.832Z,15.23
2017-11-24T22:45:05.282Z,16.63
2017-11-24T22:47:32.772Z,15.70
2017-11-24T22:50:00.275Z,16.63
2017-11-24T22:52:27.732Z,17.00
2017-11-24T22:54:56.001Z,17.50
2017-11-24T22:57:23.466Z,18.17
2017-11-24T22:59:51.722Z,16.50
2017-11-24T23:02:19.342Z,17.77
2017-11-24T23:04:46.867Z,16.90
2017-11-24T23:07:15.126Z,15.53
2017-11-24T23:09:42.845Z,16.07
2017-11-24T23:12:10.306Z,16.70
2017-11-24T23:14:37.809Z,17.63
2017-11-24T23:17:05.283Z,16.17
2017-11-24T23:19:33.509Z,17.53
2017-11-24T23:22:01.051Z,17.40
2017-11-24T23:24:28.525Z,17.53
2017-11-24T23:26:56.013Z,17.17
2017-11-24T23:29:24.290Z,16.90
2017-11-24T23:31:52.515Z,18.17
2017-11-24T23:34:20.738Z,17.30
2017-11-24T23:36:48.982Z,18.23
2017-11-24T23:39:16.454Z,17.60
2017-11-24T23:41:43.976Z,18.20
2017-11-24T23:44:11.451Z,16.80
2017-11-24T23:46:38.908Z,17.00
2017-11-24T23:49:06.404Z,17.40
2017-11-24T23:51:33.949Z,18.77
2017-11-24T23:54:01.433Z,18.23
2017-11-24T23:56:29.648Z,16.50
2017-11-24T23:58:57.833Z,18.20
